createdAt,value
2023-02-09T00:01:21.534Z,13.10
2023-02-09T00:03:48.339Z,13.17
2023-02-09T00:06:17.812Z,12.97
2023-02-09T00:08:44.851Z,14.20
2023-02-09T00:11:22.404Z,13.23
2023-02-09T00:13:48.927Z,13.73
2023-02-09T00:16:15.540Z,14.33
2023-02-09T00:18:42.042Z,13.40
2023-02-09T00:21:10.895Z,14.37
2023-02-09T00:23:40.716Z,13.53
2023-02-09T00:26:10.441Z,14.03
2023-02-09T00:28:37.587Z,12.67
2023-02-09T00:31:12.503Z,13.23
2023-02-09T00:33:41.796Z,13.03
2023-02-09T00:36:11.691Z,13.60
2023-02-09T00:38:39.142Z,12.80
2023-02-09T00:41:06.172Z,13.00
2023-02-09T00:43:33.445Z,13.27
2023-02-09T00:45:59.944Z,12.60
2023-02-09T00:48:26.714Z,12.23
2023-02-09T00:50:54.402Z,13.07
2023-02-09T00:53:22.115Z,13.20
2023-02-09T00:55:48.977Z,13.53
2023-02-09T00:58:16.035Z,14.20
2023-02-09T01:00:42.841Z,13.60
2023-02-09T01:03:09.580Z,12.67
2023-02-09T01:05:40.505Z,13.53
2023-02-09T01:08:07.227Z,14.17
2023-02-09T01:10:34.345Z,13.40
2023-02-09T01:13:00.800Z,12.97
2023-02-09T01:15:28.905Z,12.47
2023-02-09T01:17:55.356Z,13.23
2023-02-09T01:20:21.896Z,13.67
2023-02-09T01:22:48.389Z,13.10
2023-02-09T01:25:14.838Z,12.40
2023-02-09T01:27:42.296Z,13.27
2023-02-09T01:30:09.795Z,12.63
2023-02-09T01:32:36.926Z,13.47
2023-02-09T01:35:04.149Z,13.43
2023-02-09T01:37:30.624Z,12.77
2023-02-09T01:39:57.186Z,12.40
2023-02-09T01:42:23.648Z,13.23
2023-02-09T01:44:50.297Z,13.37
2023-02-09T01:47:18.780Z,13.13
2023-02-09T01:49:48.977Z,12.90
2023-02-09T01:52:20.501Z,12.43
2023-02-09T01:54:52.712Z,13.37
2023-02-09T02:01:28.917Z,13.30
2023-02-09T02:03:55.682Z,13.93
2023-02-09T02:06:22.236Z,13.37
2023-02-09T02:08:58.002Z,14.57
2023-02-09T02:11:28.137Z,12.97
2023-02-09T02:13:54.641Z,13.87
2023-02-09T02:16:53.579Z,12.17
2023-02-09T02:19:43.975Z,14.17
2023-02-09T02:22:25.542Z,14.43
2023-02-09T02:25:10.646Z,14.10
2023-02-09T02:28:20.015Z,14.33
2023-02-09T02:31:18.091Z,13.20
2023-02-09T02:34:04.780Z,12.67
2023-02-09T02:36:55.475Z,13.20
2023-02-09T02:39:33.501Z,13.53
2023-02-09T02:42:33.463Z,12.47
2023-02-09T02:45:11.192Z,12.97
2023-02-09T02:47:42.020Z,12.83
2023-02-09T02:50:16.778Z,13.17
2023-02-09T02:52:47.478Z,14.13
2023-02-09T02:55:16.692Z,13.53
2023-02-09T02:57:47.228Z,13.43
2023-02-09T03:00:19.092Z,13.70
2023-02-09T03:02:53.481Z,13.27
2023-02-09T03:05:23.883Z,13.23
2023-02-09T03:07:50.662Z,13.73
2023-02-09T03:10:43.613Z,13.73
2023-02-09T03:13:12.972Z,12.77
2023-02-09T03:15:56.972Z,13.20
2023-02-09T03:18:39.619Z,14.27
2023-02-09T03:21:18.888Z,13.03
2023-02-09T03:23:53.684Z,14.37
2023-02-09T03:26:25.186Z,13.27
2023-02-09T03:28:56.976Z,13.23
2023-02-09T03:31:24.814Z,13.47
2023-02-09T03:33:51.847Z,13.27
2023-02-09T03:36:20.361Z,13.03
2023-02-09T03:38:46.767Z,13.77
2023-02-09T03:41:13.245Z,13.23
2023-02-09T03:43:58.297Z,13.73
2023-02-09T03:46:24.777Z,13.20
2023-02-09T03:48:51.359Z,13.23
2023-02-09T03:51:17.796Z,13.67
2023-02-09T03:53:44.216Z,14.33
2023-02-09T03:56:10.633Z,13.80
2023-02-09T03:58:37.143Z,13.13
2023-02-09T04:01:09.268Z,13.27
2023-02-09T04:03:36.424Z,13.93
2023-02-09T04:06:03.668Z,12.53
2023-02-09T04:08:30.178Z,13.53
2023-02-09T04:10:57.551Z,14.00
2023-02-09T04:13:25.020Z,14.73
2023-02-09T04:15:52.000Z,14.77
2023-02-09T04:18:18.641Z,15.00
2023-02-09T04:20:45.861Z,14.17
2023-02-09T04:23:12.940Z,14.30
2023-02-09T04:25:39.623Z,14.33
2023-02-09T04:28:06.119Z,13.50
2023-02-09T04:30:32.685Z,14.13
2023-02-09T04:32:59.361Z,14.07
2023-02-09T04:35:25.979Z,14.93
2023-02-09T04:37:52.449Z,14.27
2023-02-09T04:40:19.294Z,14.43
2023-02-09T04:42:46.814Z,15.10
2023-02-09T04:45:13.382Z,15.50
2023-02-09T04:47:39.865Z,14.67
2023-02-09T04:50:06.512Z,14.50
2023-02-09T04:52:33.012Z,14.70
2023-02-09T04:54:59.469Z,15.60
2023-02-09T04:57:44.535Z,15.40
2023-02-09T05:00:11.655Z,15.77
2023-02-09T05:02:38.101Z,15.27
2023-02-09T05:05:04.782Z,15.57
2023-02-09T05:07:31.237Z,16.23
2023-02-09T05:09:57.669Z,17.03
2023-02-09T05:12:24.160Z,16.00
2023-02-09T05:14:50.680Z,15.73
2023-02-09T05:17:20.987Z,15.97
2023-02-09T05:19:48.643Z,15.93
2023-02-09T05:22:15.204Z,18.37
2023-02-09T05:24:41.650Z,17.37
2023-02-09T05:27:08.166Z,16.40
2023-02-09T05:29:34.671Z,15.93
2023-02-09T05:32:01.221Z,15.27
2023-02-09T05:34:27.671Z,15.57
2023-02-09T05:36:54.177Z,15.40
2023-02-09T05:39:20.640Z,15.27
2023-02-09T05:42:05.732Z,14.30
2023-02-09T05:44:32.240Z,15.13
2023-02-09T05:46:58.772Z,14.57
2023-02-09T05:49:25.312Z,15.60
2023-02-09T05:51:51.876Z,15.13
2023-02-09T05:54:18.354Z,16.63
2023-02-09T05:56:44.831Z,14.53
2023-02-09T05:59:11.282Z,14.30
2023-02-09T06:01:37.911Z,15.73
2023-02-09T06:04:04.541Z,16.10
2023-02-09T06:06:31.298Z,15.47
2023-02-09T06:08:57.787Z,14.67
2023-02-09T06:11:24.239Z,13.90
2023-02-09T06:13:50.706Z,14.00
2023-02-09T06:16:17.184Z,14.43
2023-02-09T06:18:43.608Z,13.17
2023-02-09T06:21:12.029Z,15.00
2023-02-09T06:23:39.370Z,14.70
2023-02-09T06:26:11.559Z,15.07
2023-02-09T06:28:38.426Z,15.67
2023-02-09T06:31:06.844Z,16.33
2023-02-09T06:33:35.451Z,15.50
2023-02-09T06:36:02.493Z,16.30
2023-02-09T06:38:36.622Z,16.87
2023-02-09T06:41:04.246Z,15.13
2023-02-09T06:43:30.745Z,16.63
2023-02-09T06:45:57.331Z,17.03
2023-02-09T06:48:23.826Z,17.03
2023-02-09T06:50:50.263Z,16.97
2023-02-09T06:53:18.645Z,17.57
2023-02-09T06:55:45.212Z,18.73
2023-02-09T06:58:11.682Z,21.33
2023-02-09T07:00:38.180Z,21.77
2023-02-09T07:03:04.728Z,21.10
2023-02-09T07:05:31.637Z,20.67
2023-02-09T07:07:58.256Z,18.87
2023-02-09T07:10:24.848Z,18.60
2023-02-09T07:12:51.519Z,19.57
2023-02-09T07:15:18.112Z,17.80
2023-02-09T07:17:44.887Z,21.90
2023-02-09T07:20:11.786Z,22.30
2023-02-09T07:22:38.383Z,21.43
2023-02-09T07:25:05.389Z,18.80
2023-02-09T07:27:31.947Z,19.27
2023-02-09T07:30:00.752Z,19.27
2023-02-09T07:32:27.799Z,18.37
2023-02-09T07:34:54.347Z,18.30
2023-02-09T07:37:20.795Z,18.17
2023-02-09T07:39:47.424Z,19.20
2023-02-09T07:42:13.969Z,18.57
2023-02-09T07:44:48.793Z,18.93
2023-02-09T07:47:15.243Z,20.20
2023-02-09T07:49:41.738Z,20.33
2023-02-09T07:52:08.187Z,18.23
2023-02-09T07:54:34.652Z,17.23
2023-02-09T07:57:01.132Z,17.67
2023-02-09T07:59:27.780Z,17.77
2023-02-09T08:01:54.240Z,16.70
2023-02-09T08:04:20.922Z,18.53
2023-02-09T08:06:47.409Z,18.77
2023-02-09T08:09:18.091Z,18.50
2023-02-09T08:11:58.750Z,17.77
2023-02-09T08:14:31.829Z,16.33
2023-02-09T08:17:23.591Z,18.87
2023-02-09T08:20:02.269Z,19.67
2023-02-09T08:22:33.557Z,19.83
2023-02-09T08:25:02.837Z,21.93
2023-02-09T08:27:30.220Z,21.53
2023-02-09T08:29:58.413Z,20.57
2023-02-09T08:32:24.869Z,21.47
2023-02-09T08:34:51.360Z,21.37
2023-02-09T08:37:17.871Z,21.67
2023-02-09T08:39:45.198Z,21.60
2023-02-09T08:42:11.692Z,19.97
2023-02-09T08:44:38.148Z,20.20
2023-02-09T08:47:04.840Z,19.80
2023-02-09T08:49:31.347Z,16.33
2023-02-09T08:51:57.794Z,17.23
2023-02-09T08:54:25.326Z,16.00
2023-02-09T08:56:51.758Z,22.83
2023-02-09T08:59:20.062Z,23.03
2023-02-09T09:01:46.694Z,23.33
2023-02-09T09:04:13.534Z,26.67
2023-02-09T09:06:40.055Z,23.53
2023-02-09T09:09:06.645Z,18.90
2023-02-09T09:11:33.208Z,22.30
2023-02-09T09:13:59.674Z,23.47
2023-02-09T09:16:26.171Z,22.93
2023-02-09T09:18:52.654Z,25.47
2023-02-09T09:21:19.418Z,16.63
2023-02-09T09:23:46.913Z,17.37
2023-02-09T09:26:13.806Z,15.97
2023-02-09T09:28:40.288Z,15.90
2023-02-09T09:31:12.918Z,16.30
2023-02-09T09:33:40.217Z,15.03
2023-02-09T09:36:07.568Z,14.63
2023-02-09T09:38:35.930Z,15.27
2023-02-09T09:41:04.792Z,15.37
2023-02-09T09:43:39.384Z,15.10
2023-02-09T09:46:12.054Z,17.03
2023-02-09T09:48:45.697Z,17.20
2023-02-09T09:51:18.604Z,17.00
2023-02-09T09:53:49.421Z,16.60
2023-02-09T09:56:20.042Z,16.70
2023-02-09T09:58:47.382Z,17.17
2023-02-09T10:01:16.023Z,17.73
2023-02-09T10:03:42.820Z,17.13
2023-02-09T10:06:22.889Z,17.73
2023-02-09T10:08:55.093Z,18.67
2023-02-09T10:11:33.118Z,19.17
2023-02-09T10:13:59.603Z,18.37
2023-02-09T10:16:34.427Z,19.03
2023-02-09T10:19:05.816Z,18.77
2023-02-09T10:21:36.738Z,19.20
2023-02-09T10:24:12.739Z,18.13
2023-02-09T10:26:40.744Z,19.33
2023-02-09T10:29:13.376Z,18.90
2023-02-09T10:31:41.406Z,19.73
2023-02-09T10:34:17.088Z,19.87
2023-02-09T10:36:54.308Z,20.37
2023-02-09T10:39:39.350Z,19.60
2023-02-09T10:42:19.220Z,19.93
2023-02-09T10:44:50.360Z,20.67
2023-02-09T10:47:19.815Z,20.07
2023-02-09T10:50:07.711Z,20.07
2023-02-09T10:52:37.152Z,20.10
2023-02-09T10:55:17.409Z,19.93
2023-02-09T10:57:43.896Z,20.23
2023-02-09T11:00:16.202Z,20.63
2023-02-09T11:02:52.236Z,19.03
2023-02-09T11:05:21.716Z,20.47
2023-02-09T11:07:58.055Z,20.03
2023-02-09T11:10:27.114Z,19.60
2023-02-09T11:12:53.571Z,18.83
2023-02-09T11:15:26.687Z,19.90
2023-02-09T11:18:01.184Z,20.17
2023-02-09T11:20:35.486Z,19.40
2023-02-09T11:23:47.048Z,20.20
2023-02-09T11:26:32.297Z,20.83
2023-02-09T11:29:10.503Z,21.07
2023-02-09T11:32:01.841Z,20.90
2023-02-09T11:34:38.088Z,20.87
2023-02-09T11:37:20.883Z,20.63
2023-02-09T11:39:52.634Z,20.57
2023-02-09T11:42:45.650Z,20.73
2023-02-09T11:45:12.094Z,20.50
2023-02-09T11:47:58.334Z,19.47
2023-02-09T11:50:44.320Z,19.37
2023-02-09T11:53:23.484Z,19.03
2023-02-09T11:55:57.507Z,17.97
2023-02-09T11:58:51.779Z,18.43
2023-02-09T12:01:29.730Z,18.57
2023-02-09T12:04:03.980Z,19.77
2023-02-09T12:06:37.536Z,18.10
2023-02-09T12:09:37.735Z,19.97
2023-02-09T12:12:15.326Z,19.10
2023-02-09T12:14:49.590Z,18.97
2023-02-09T12:17:29.652Z,19.00
2023-02-09T12:19:59.122Z,19.97
2023-02-09T12:22:34.863Z,17.93
2023-02-09T12:25:10.458Z,17.97
2023-02-09T12:27:38.947Z,17.87
2023-02-09T12:30:42.393Z,16.93
2023-02-09T12:33:23.914Z,18.97
2023-02-09T12:36:09.049Z,18.87
2023-02-09T12:38:56.333Z,18.07
2023-02-09T12:41:28.507Z,18.23
2023-02-09T12:44:10.267Z,18.40
2023-02-09T12:46:51.733Z,18.90
2023-02-09T12:49:31.991Z,19.03
2023-02-09T12:52:01.417Z,18.47
2023-02-09T12:54:41.461Z,18.17
2023-02-09T12:57:17.387Z,17.93
2023-02-09T12:59:50.077Z,17.33
2023-02-09T13:02:38.053Z,17.33
2023-02-09T13:05:19.716Z,18.40
2023-02-09T13:07:53.218Z,18.17
2023-02-09T13:10:48.262Z,18.07
2023-02-09T13:13:19.616Z,19.57
2023-02-09T13:16:07.008Z,17.60
2023-02-09T13:19:00.535Z,17.67
2023-02-09T13:22:04.679Z,18.50
2023-02-09T13:24:41.500Z,19.10
2023-02-09T13:27:22.809Z,16.37
2023-02-09T13:29:57.395Z,16.73
2023-02-09T13:32:38.162Z,15.87
2023-02-09T13:35:21.480Z,14.33
2023-02-09T13:37:54.119Z,16.07
2023-02-09T13:40:26.705Z,15.90
2023-02-09T13:42:58.964Z,15.17
2023-02-09T13:45:26.835Z,15.70
2023-02-09T13:47:55.470Z,16.07
2023-02-09T13:50:24.349Z,16.23
2023-02-09T13:52:51.126Z,15.43
2023-02-09T13:55:25.340Z,15.47
2023-02-09T13:58:04.413Z,15.20
2023-02-09T14:00:40.390Z,15.43
2023-02-09T14:03:46.960Z,16.20
2023-02-09T14:06:39.883Z,15.90
2023-02-09T14:09:15.578Z,15.77
2023-02-09T14:11:51.898Z,16.57
2023-02-09T14:14:25.998Z,15.53
2023-02-09T14:17:24.497Z,16.30
2023-02-09T14:19:52.824Z,17.60
2023-02-09T14:22:39.848Z,16.27
2023-02-09T14:25:22.469Z,17.77
2023-02-09T14:27:49.529Z,17.10
2023-02-09T14:30:23.353Z,16.37
2023-02-09T14:32:56.006Z,17.10
2023-02-09T14:35:28.792Z,17.40
2023-02-09T14:37:58.477Z,16.67
2023-02-09T14:40:28.110Z,15.83
2023-02-09T14:43:12.540Z,16.13
2023-02-09T14:45:48.515Z,16.73
2023-02-09T14:48:27.368Z,16.27
2023-02-09T14:50:56.485Z,16.03
2023-02-09T14:53:26.151Z,17.27
2023-02-09T14:55:56.503Z,15.33
2023-02-09T14:58:26.301Z,15.83
2023-02-09T15:00:55.223Z,15.47
2023-02-09T15:03:22.252Z,16.13
2023-02-09T15:05:51.187Z,15.20
2023-02-09T15:08:21.143Z,14.70
2023-02-09T15:11:28.422Z,15.17
2023-02-09T15:14:03.635Z,15.17
2023-02-09T15:16:31.100Z,15.13
2023-02-09T15:18:57.657Z,16.73
2023-02-09T15:21:24.359Z,18.13
2023-02-09T15:23:50.805Z,15.93
2023-02-09T15:26:18.657Z,14.77
2023-02-09T15:28:45.094Z,16.57
2023-02-09T15:31:15.954Z,15.40
2023-02-09T15:33:43.095Z,14.33
2023-02-09T15:36:19.020Z,13.80
2023-02-09T15:38:45.502Z,14.27
2023-02-09T15:41:30.744Z,13.53
2023-02-09T15:44:15.913Z,14.00
2023-02-09T15:47:01.893Z,14.20
2023-02-09T15:49:30.903Z,13.40
2023-02-09T15:51:57.363Z,13.37
2023-02-09T15:54:29.570Z,13.03
2023-02-09T15:56:56.001Z,14.83
2023-02-09T15:59:23.630Z,13.80
2023-02-09T16:01:50.791Z,14.10
2023-02-09T16:04:18.174Z,13.20
2023-02-09T16:06:53.130Z,14.80
2023-02-09T16:09:23.515Z,13.80
2023-02-09T16:11:50.075Z,13.60
2023-02-09T16:14:20.298Z,14.00
2023-02-09T16:16:47.449Z,13.37
2023-02-09T16:19:14.612Z,15.70
2023-02-09T16:21:44.372Z,14.20
2023-02-09T16:24:30.263Z,15.50
2023-02-09T16:26:59.830Z,14.97
2023-02-09T16:29:26.410Z,16.93
2023-02-09T16:31:53.083Z,15.87
2023-02-09T16:34:19.620Z,15.00
2023-02-09T16:36:48.438Z,14.67
2023-02-09T16:39:20.431Z,15.93
2023-02-09T16:41:48.074Z,16.87
2023-02-09T16:44:26.993Z,18.23
2023-02-09T16:46:56.636Z,18.80
2023-02-09T16:49:37.449Z,18.40
2023-02-09T16:52:12.513Z,19.33
2023-02-09T16:54:54.677Z,21.03
2023-02-09T16:57:25.831Z,21.37
2023-02-09T16:59:53.416Z,20.57
2023-02-09T17:02:29.155Z,19.37
2023-02-09T17:04:55.759Z,22.97
2023-02-09T17:07:28.141Z,22.67
2023-02-09T17:09:57.403Z,19.27
2023-02-09T17:12:23.934Z,19.13
2023-02-09T17:14:50.446Z,18.13
2023-02-09T17:17:20.097Z,18.17
2023-02-09T17:19:49.491Z,19.60
2023-02-09T17:22:16.362Z,20.47
2023-02-09T17:24:42.944Z,19.93
2023-02-09T17:27:10.141Z,21.80
2023-02-09T17:29:36.589Z,20.27
2023-02-09T17:32:03.516Z,18.67
2023-02-09T17:34:30.193Z,17.73
2023-02-09T17:36:57.993Z,17.73
2023-02-09T17:39:24.967Z,18.13
2023-02-09T17:41:51.700Z,17.47
2023-02-09T17:44:43.687Z,16.00
2023-02-09T17:47:20.039Z,18.63
2023-02-09T17:49:46.986Z,17.17
2023-02-09T17:52:20.157Z,16.47
2023-02-09T17:54:47.567Z,16.03
2023-02-09T17:57:16.215Z,16.13
2023-02-09T17:59:43.236Z,15.80
2023-02-09T18:02:19.603Z,14.63
2023-02-09T18:04:46.242Z,16.63
2023-02-09T18:07:14.468Z,16.30
2023-02-09T18:09:40.942Z,16.17
2023-02-09T18:12:16.723Z,16.80
2023-02-09T18:14:43.154Z,15.80
2023-02-09T18:17:09.689Z,16.77
2023-02-09T18:19:36.235Z,17.97
2023-02-09T18:22:02.908Z,20.20
2023-02-09T18:24:34.863Z,21.27
2023-02-09T18:27:01.970Z,21.47
2023-02-09T18:29:31.330Z,20.07
2023-02-09T18:32:00.105Z,22.73
2023-02-09T18:34:27.640Z,21.90
2023-02-09T18:36:54.156Z,25.13
2023-02-09T18:39:20.665Z,26.30
2023-02-09T18:41:53.830Z,25.93
2023-02-09T18:44:24.248Z,23.97
2023-02-09T18:46:50.719Z,24.60
2023-02-09T18:49:17.156Z,23.93
2023-02-09T18:51:43.626Z,22.63
2023-02-09T18:54:10.095Z,21.50
2023-02-09T18:56:36.561Z,21.87
2023-02-09T18:59:03.036Z,21.00
2023-02-09T19:01:29.509Z,21.20
2023-02-09T19:03:56.016Z,22.57
2023-02-09T19:06:25.181Z,21.43
2023-02-09T19:08:52.291Z,20.50
2023-02-09T19:11:21.325Z,20.80
2023-02-09T19:14:07.134Z,21.23
2023-02-09T19:16:35.386Z,20.00
2023-02-09T19:19:01.906Z,21.73
2023-02-09T19:21:28.890Z,21.40
2023-02-09T19:23:55.510Z,22.83
2023-02-09T19:26:22.058Z,20.90
2023-02-09T19:28:48.657Z,23.27
2023-02-09T19:31:16.941Z,25.00
2023-02-09T19:33:43.652Z,27.20
2023-02-09T19:36:10.249Z,29.50
2023-02-09T19:38:36.716Z,27.80
2023-02-09T19:41:10.655Z,26.90
2023-02-09T19:43:39.304Z,27.70
2023-02-09T19:46:06.345Z,27.43
2023-02-09T19:48:33.060Z,26.20
2023-02-09T19:50:59.919Z,25.33
2023-02-09T19:53:27.203Z,23.17
2023-02-09T19:55:54.408Z,22.67
2023-02-09T19:58:24.031Z,25.47
2023-02-09T20:00:51.883Z,24.03
2023-02-09T20:03:18.774Z,24.20
2023-02-09T20:05:45.935Z,25.13
2023-02-09T20:08:15.715Z,24.17
2023-02-09T20:10:43.998Z,23.93
2023-02-09T20:13:12.826Z,22.00
2023-02-09T20:15:43.863Z,22.17
2023-02-09T20:18:12.725Z,19.53
2023-02-09T20:20:41.956Z,19.73
2023-02-09T20:23:09.491Z,19.07
2023-02-09T20:25:35.966Z,20.57
2023-02-09T20:28:02.760Z,20.47
2023-02-09T20:30:29.259Z,20.90
2023-02-09T20:32:55.741Z,22.47
2023-02-09T20:35:22.400Z,23.60
2023-02-09T20:37:49.327Z,26.67
2023-02-09T20:40:15.938Z,27.53
2023-02-09T20:43:00.854Z,27.83
2023-02-09T20:45:46.018Z,27.73
2023-02-09T20:48:13.673Z,27.47
2023-02-09T20:50:40.192Z,25.67
2023-02-09T20:53:06.684Z,24.47
2023-02-09T20:55:33.186Z,23.13
2023-02-09T20:57:59.671Z,22.67
2023-02-09T21:00:26.203Z,22.60
2023-02-09T21:02:52.683Z,21.03
2023-02-09T21:05:19.180Z,21.13
2023-02-09T21:07:45.643Z,20.17
2023-02-09T21:10:12.976Z,19.23
2023-02-09T21:12:39.534Z,19.03
2023-02-09T21:15:06.437Z,19.30
2023-02-09T21:17:32.980Z,22.07
2023-02-09T21:19:59.438Z,21.57
2023-02-09T21:22:25.884Z,20.30
2023-02-09T21:24:52.332Z,20.80
2023-02-09T21:27:19.264Z,20.50
2023-02-09T21:29:45.822Z,20.47
2023-02-09T21:32:12.285Z,20.67
2023-02-09T21:34:38.764Z,19.70
2023-02-09T21:37:07.908Z,21.07
2023-02-09T21:39:34.501Z,21.23
2023-02-09T21:42:19.467Z,22.93
2023-02-09T21:44:46.997Z,23.07
2023-02-09T21:47:13.545Z,22.00
2023-02-09T21:49:40.067Z,23.63
2023-02-09T21:52:06.560Z,23.63
2023-02-09T21:54:33.873Z,22.13
2023-02-09T21:57:01.654Z,22.73
2023-02-09T21:59:28.805Z,23.07
2023-02-09T22:01:55.539Z,22.27
2023-02-09T22:04:22.097Z,23.87
2023-02-09T22:06:49.172Z,23.13
2023-02-09T22:09:15.969Z,22.70
2023-02-09T22:11:42.401Z,22.47
2023-02-09T22:14:09.178Z,23.67
2023-02-09T22:16:35.682Z,23.03
2023-02-09T22:19:02.188Z,23.07
2023-02-09T22:21:28.658Z,25.20
2023-02-09T22:23:55.311Z,25.47
2023-02-09T22:26:21.827Z,27.00
2023-02-09T22:28:48.672Z,25.37
2023-02-09T22:31:17.571Z,23.40
2023-02-09T22:33:44.530Z,23.60
2023-02-09T22:36:13.671Z,26.27
2023-02-09T22:38:40.578Z,25.23
2023-02-09T22:41:21.201Z,25.07
2023-02-09T22:43:59.553Z,24.20
2023-02-09T22:46:28.848Z,23.73
2023-02-09T22:48:58.489Z,23.87
2023-02-09T22:51:30.785Z,25.33
2023-02-09T22:53:58.881Z,24.50
2023-02-09T22:56:26.278Z,23.50
2023-02-09T22:58:53.987Z,23.97
2023-02-09T23:01:21.017Z,24.77
2023-02-09T23:03:47.795Z,24.23
2023-02-09T23:06:17.362Z,25.73
2023-02-09T23:08:44.292Z,24.93
2023-02-09T23:11:14.682Z,24.60
2023-02-09T23:13:41.844Z,25.17
2023-02-09T23:16:20.590Z,24.53
2023-02-09T23:18:55.877Z,23.27
2023-02-09T23:21:25.115Z,22.97
2023-02-09T23:23:52.192Z,21.67
2023-02-09T23:26:19.797Z,22.97
2023-02-09T23:28:47.936Z,22.73
2023-02-09T23:31:16.776Z,22.67
2023-02-09T23:33:43.503Z,22.57
2023-02-09T23:36:31.655Z,22.13
2023-02-09T23:39:00.958Z,24.53
2023-02-09T23:41:27.935Z,23.47
2023-02-09T23:43:55.214Z,22.83
2023-02-09T23:46:26.740Z,22.03
2023-02-09T23:48:55.075Z,23.00
2023-02-09T23:51:28.435Z,22.53
2023-02-09T23:53:57.766Z,22.60
2023-02-09T23:56:24.967Z,23.20
2023-02-09T23:58:53.095Z,25.13
